Time;durP1;ratioP1;P1;durP2;ratioP2;P2;SDS_P1;SDS_P2;PMS_P1;PMS_P2;Temp;Humidity;BMP_temperature;BMP_pressure;BME280_temperature;BME280_humidity;BME280_pressure;Samples;Min_cycle;Max_cycle;Signal;HPM_P1;HPM_P2
2021/07/07 00:00:20;;;;;;;10.77;8.93;;;;;;;;;;5061734;28;20021;-81
2021/07/07 00:02:49;;;;;;;11.32;8.52;;;;;;;;;;5069424;28;20025;-81
2021/07/07 00:05:16;;;;;;;9.93;8.85;;;;;;;;;;5065357;28;20043;-81
2021/07/07 00:07:43;;;;;;;12.45;8.27;;;;;;;;;;5074904;28;20427;-80
2021/07/07 00:10:36;;;;;;;9.52;8.23;;;;;;;;;;5086302;28;20082;-80
2021/07/07 00:13:02;;;;;;;11.25;9.07;;;;;;;;;;5085749;28;20027;-84
2021/07/07 00:15:34;;;;;;;10.20;8.70;;;;;;;;;;5076956;28;20555;-81
2021/07/07 00:18:02;;;;;;;10.10;8.20;;;;;;;;;;5085257;28;20024;-80
2021/07/07 00:20:39;;;;;;;11.48;8.70;;;;;;;;;;5094755;28;20048;-81
2021/07/07 00:23:08;;;;;;;9.07;7.97;;;;;;;;;;5078848;28;20021;-82
2021/07/07 00:25:36;;;;;;;9.98;8.50;;;;;;;;;;5074849;28;20422;-81
2021/07/07 00:28:01;;;;;;;9.00;8.10;;;;;;;;;;5084763;28;20077;-79
2021/07/07 00:30:56;;;;;;;11.27;8.50;;;;;;;;;;5094202;28;20027;-80
2021/07/07 00:33:21;;;;;;;10.02;8.13;;;;;;;;;;5090238;28;20468;-81
2021/07/07 00:35:47;;;;;;;11.95;7.93;;;;;;;;;;5074848;28;20164;-79
2021/07/07 00:38:28;;;;;;;9.05;8.15;;;;;;;;;;5074857;28;20468;-80
2021/07/07 00:40:53;;;;;;;10.40;8.15;;;;;;;;;;5094451;28;20035;-80
2021/07/07 00:43:19;;;;;;;8.73;7.78;;;;;;;;;;5076048;28;20032;-79
2021/07/07 00:45:45;;;;;;;11.00;7.60;;;;;;;;;;5095000;28;20024;-80
2021/07/07 00:48:11;;;;;;;10.20;7.82;;;;;;;;;;5094854;28;20066;-79
2021/07/07 00:50:36;;;;;;;9.30;7.70;;;;;;;;;;5094842;28;20020;-80
2021/07/07 00:53:11;;;;;;;8.70;7.90;;;;;;;;;;5080523;28;20025;-78
2021/07/07 00:55:39;;;;;;;12.20;7.93;;;;;;;;;;5094346;28;20028;-80
2021/07/07 00:58:07;;;;;;;10.02;7.85;;;;;;;;;;5094664;28;20024;-82
2021/07/07 01:00:53;;;;;;;8.93;8.02;;;;;;;;;;5076450;28;20020;-84
2021/07/07 01:03:18;;;;;;;8.70;7.80;;;;;;;;;;5077946;28;20496;-81
2021/07/07 01:05:44;;;;;;;9.95;8.23;;;;;;;;;;5084474;28;20038;-81
2021/07/07 01:08:12;;;;;;;11.82;8.65;;;;;;;;;;5090519;28;20041;-81
2021/07/07 01:10:38;;;;;;;9.48;8.55;;;;;;;;;;5074191;28;20034;-79
2021/07/07 01:13:03;;;;;;;9.15;7.97;;;;;;;;;;5060481;28;20024;-80
2021/07/07 01:15:45;;;;;;;10.23;8.40;;;;;;;;;;5073587;28;20621;-79
2021/07/07 01:18:11;;;;;;;10.00;8.95;;;;;;;;;;5072277;28;20122;-80
2021/07/07 01:20:40;;;;;;;9.30;8.40;;;;;;;;;;5073419;28;20107;-80
2021/07/07 01:23:07;;;;;;;13.25;8.88;;;;;;;;;;5054984;28;20033;-80
2021/07/07 01:25:33;;;;;;;9.32;8.02;;;;;;;;;;5073612;28;20116;-81
2021/07/07 01:28:03;;;;;;;10.25;8.27;;;;;;;;;;5073113;28;20055;-79
2021/07/07 01:30:29;;;;;;;9.02;8.13;;;;;;;;;;5052969;28;20104;-82
2021/07/07 01:32:55;;;;;;;9.32;8.43;;;;;;;;;;5065737;28;20111;-82
2021/07/07 01:35:21;;;;;;;8.77;7.88;;;;;;;;;;5072070;28;20506;-81
2021/07/07 01:37:48;;;;;;;9.10;7.80;;;;;;;;;;5072076;28;20029;-79
2021/07/07 01:40:20;;;;;;;9.63;7.90;;;;;;;;;;5064053;28;20020;-79
2021/07/07 01:42:45;;;;;;;9.52;8.07;;;;;;;;;;5063969;28;20130;-80
2021/07/07 01:45:12;;;;;;;8.90;7.22;;;;;;;;;;5073428;28;20034;-80
2021/07/07 01:47:52;;;;;;;11.23;7.60;;;;;;;;;;5073478;28;20031;-81
2021/07/07 01:50:17;;;;;;;9.65;8.13;;;;;;;;;;5073290;28;20383;-82
2021/07/07 01:52:55;;;;;;;9.40;7.53;;;;;;;;;;5062604;28;20025;-82
2021/07/07 01:55:22;;;;;;;8.48;7.20;;;;;;;;;;5053277;28;20058;-79
2021/07/07 01:57:49;;;;;;;8.60;7.63;;;;;;;;;;5057910;28;20024;-81
2021/07/07 02:00:22;;;;;;;9.38;8.23;;;;;;;;;;5058108;28;20028;-79
2021/07/07 02:02:49;;;;;;;9.77;8.18;;;;;;;;;;5070632;28;20111;-79
2021/07/07 02:05:16;;;;;;;10.45;8.30;;;;;;;;;;5072243;28;20086;-81
2021/07/07 02:07:43;;;;;;;11.55;8.15;;;;;;;;;;5056981;28;20137;-80
2021/07/07 02:10:12;;;;;;;11.55;8.63;;;;;;;;;;5093411;28;20040;-78
2021/07/07 02:12:38;;;;;;;11.82;8.98;;;;;;;;;;5093354;28;20502;-80
2021/07/07 02:15:16;;;;;;;9.73;8.57;;;;;;;;;;5093257;28;20023;-81
2021/07/07 02:17:43;;;;;;;10.50;8.30;;;;;;;;;;5075882;28;20039;-81
2021/07/07 02:20:27;;;;;;;9.57;8.52;;;;;;;;;;5092911;28;20517;-80
2021/07/07 02:22:52;;;;;;;12.85;8.32;;;;;;;;;;5092932;28;20361;-82
2021/07/07 02:25:23;;;;;;;8.65;7.85;;;;;;;;;;5093156;28;20085;-81
2021/07/07 02:27:59;;;;;;;10.48;8.02;;;;;;;;;;5092257;28;20028;-81
2021/07/07 02:30:27;;;;;;;9.80;8.52;;;;;;;;;;5093080;28;20016;-83
2021/07/07 02:32:54;;;;;;;10.35;7.90;;;;;;;;;;5072207;28;20544;-80
2021/07/07 02:35:40;;;;;;;8.57;7.68;;;;;;;;;;5092671;28;20490;-85
2021/07/07 02:38:08;;;;;;;8.40;7.60;;;;;;;;;;5092896;28;20081;-83
2021/07/07 02:40:35;;;;;;;8.77;7.72;;;;;;;;;;5092533;28;20024;-81
2021/07/07 02:43:11;;;;;;;8.38;7.57;;;;;;;;;;5078087;28;20478;-80
2021/07/07 02:45:39;;;;;;;8.50;7.35;;;;;;;;;;5072536;28;20410;-79
2021/07/07 02:48:06;;;;;;;8.48;7.00;;;;;;;;;;5077890;28;20019;-79
2021/07/07 02:50:38;;;;;;;10.13;7.43;;;;;;;;;;5092919;28;20024;-79
2021/07/07 02:53:05;;;;;;;9.20;6.55;;;;;;;;;;5093966;28;20020;-79
2021/07/07 02:55:30;;;;;;;7.75;6.80;;;;;;;;;;5090133;28;20031;-80
2021/07/07 02:58:11;;;;;;;11.50;6.95;;;;;;;;;;5080594;28;20024;-80
2021/07/07 03:00:46;;;;;;;7.65;6.40;;;;;;;;;;5096817;28;20024;-79
2021/07/07 03:03:14;;;;;;;7.00;6.07;;;;;;;;;;5096909;28;20020;-80
2021/07/07 03:05:59;;;;;;;8.95;6.45;;;;;;;;;;5096920;28;20383;-81
2021/07/07 03:08:43;;;;;;;7.65;5.53;;;;;;;;;;5079908;28;20395;-80
2021/07/07 03:11:09;;;;;;;;;;;;;;;;;;5076792;28;20024;-80
2021/07/07 03:13:34;;;;;;;7.07;5.60;;;;;;;;;;5076143;28;20318;-83
2021/07/07 03:16:16;;;;;;;6.80;5.80;;;;;;;;;;5062379;28;20025;-82
2021/07/07 03:18:41;;;;;;;7.57;5.68;;;;;;;;;;5061821;28;20381;-79
2021/07/07 03:21:07;;;;;;;7.25;5.65;;;;;;;;;;5056390;28;20021;-79
2021/07/07 03:23:32;;;;;;;8.45;5.47;;;;;;;;;;5056105;28;20112;-81
2021/07/07 03:25:57;;;;;;;10.07;5.50;;;;;;;;;;5055920;28;20528;-81
2021/07/07 03:28:24;;;;;;;8.68;5.70;;;;;;;;;;5062867;28;20070;-78
2021/07/07 03:30:50;;;;;;;6.35;5.28;;;;;;;;;;5075669;28;20028;-79
2021/07/07 03:33:16;;;;;;;6.60;5.63;;;;;;;;;;5075729;28;20029;-79
2021/07/07 03:35:43;;;;;;;7.70;5.65;;;;;;;;;;5063698;28;20056;-77
2021/07/07 03:38:17;;;;;;;6.47;5.28;;;;;;;;;;5060197;28;20032;-77
2021/07/07 03:40:43;;;;;;;9.63;5.93;;;;;;;;;;5075940;28;20060;-80
2021/07/07 03:43:11;;;;;;;6.13;5.38;;;;;;;;;;5070342;28;20049;-79
2021/07/07 03:45:48;;;;;;;8.73;6.50;;;;;;;;;;5055692;28;20079;-79
2021/07/07 03:48:15;;;;;;;8.88;5.90;;;;;;;;;;5056366;28;20029;-79
2021/07/07 03:50:41;;;;;;;6.78;5.18;;;;;;;;;;5075468;28;20111;-80
2021/07/07 03:53:09;;;;;;;7.03;5.72;;;;;;;;;;5076219;28;20108;-78
2021/07/07 03:55:35;;;;;;;6.97;5.65;;;;;;;;;;5075542;28;20024;-78
2021/07/07 03:58:01;;;;;;;10.50;5.97;;;;;;;;;;5075004;28;20031;-79
2021/07/07 04:00:43;;;;;;;9.13;5.57;;;;;;;;;;5059583;28;20033;-80
2021/07/07 04:03:08;;;;;;;7.07;5.85;;;;;;;;;;5063498;28;20028;-79
2021/07/07 04:05:34;;;;;;;8.32;6.28;;;;;;;;;;5074769;28;20032;-77
2021/07/07 04:08:09;;;;;;;7.72;6.15;;;;;;;;;;5073637;28;20024;-77
2021/07/07 04:10:35;;;;;;;8.50;6.43;;;;;;;;;;5056171;28;20032;-79
2021/07/07 04:13:00;;;;;;;8.55;6.63;;;;;;;;;;5055503;28;20017;-80
2021/07/07 04:16:08;;;;;;;7.80;6.60;;;;;;;;;;5055424;28;20107;-80
2021/07/07 04:18:47;;;;;;;8.77;6.47;;;;;;;;;;5055832;28;20107;-79
2021/07/07 04:21:12;;;;;;;8.45;6.80;;;;;;;;;;5075464;28;20032;-77
2021/07/07 04:23:38;;;;;;;8.20;6.93;;;;;;;;;;5075151;28;20403;-82
2021/07/07 04:26:05;;;;;;;9.32;6.60;;;;;;;;;;5075332;28;20024;-76
2021/07/07 04:28:31;;;;;;;8.75;7.10;;;;;;;;;;5074402;28;20024;-80
2021/07/07 04:30:56;;;;;;;10.60;6.50;;;;;;;;;;5073110;28;20399;-79
2021/07/07 04:33:40;;;;;;;8.27;6.93;;;;;;;;;;5074963;28;20027;-80
2021/07/07 04:36:06;;;;;;;8.52;7.18;;;;;;;;;;5070975;28;20035;-77
2021/07/07 04:38:34;;;;;;;8.00;7.18;;;;;;;;;;5064789;28;20025;-80
2021/07/07 04:40:59;;;;;;;9.60;7.18;;;;;;;;;;5071611;28;20024;-73
2021/07/07 04:43:25;;;;;;;8.77;6.72;;;;;;;;;;5073651;28;20027;-80
2021/07/07 04:45:50;;;;;;;8.55;7.10;;;;;;;;;;5066583;28;20430;-80
2021/07/07 04:48:16;;;;;;;8.82;7.00;;;;;;;;;;5060628;28;20025;-80
2021/07/07 04:50:41;;;;;;;7.70;6.75;;;;;;;;;;5055044;28;20377;-79
2021/07/07 04:53:07;;;;;;;9.18;6.47;;;;;;;;;;5051893;28;20517;-79
2021/07/07 04:55:32;;;;;;;8.95;7.00;;;;;;;;;;5070526;28;20028;-79
2021/07/07 04:57:58;;;;;;;7.18;6.20;;;;;;;;;;5058557;28;20039;-79
2021/07/07 05:00:44;;;;;;;9.27;6.78;;;;;;;;;;5057410;28;20472;-79
2021/07/07 05:03:09;;;;;;;13.50;6.78;;;;;;;;;;5058042;28;20444;-79
2021/07/07 05:05:35;;;;;;;8.30;6.60;;;;;;;;;;5066031;28;20100;-79
2021/07/07 05:08:04;;;;;;;9.40;6.93;;;;;;;;;;5053988;28;20063;-79
2021/07/07 05:10:31;;;;;;;9.02;6.85;;;;;;;;;;5067741;28;20031;-81
2021/07/07 05:12:58;;;;;;;10.43;7.10;;;;;;;;;;5073875;28;20070;-79
2021/07/07 05:15:26;;;;;;;8.75;6.60;;;;;;;;;;5072351;28;20107;-79
2021/07/07 05:17:51;;;;;;;11.60;7.50;;;;;;;;;;5062625;28;20078;-80
2021/07/07 05:20:17;;;;;;;8.38;6.65;;;;;;;;;;5073651;28;20029;-80
2021/07/07 05:23:14;;;;;;;7.57;6.55;;;;;;;;;;5072701;28;20111;-81
2021/07/07 05:25:40;;;;;;;8.63;6.70;;;;;;;;;;5059550;28;20040;-79
2021/07/07 05:28:06;;;;;;;8.80;6.55;;;;;;;;;;5073303;28;20085;-79
2021/07/07 05:30:34;;;;;;;10.23;6.60;;;;;;;;;;5073612;28;20047;-80
2021/07/07 05:33:00;;;;;;;9.02;6.78;;;;;;;;;;5071781;28;20032;-78
2021/07/07 05:35:26;;;;;;;7.93;6.80;;;;;;;;;;5054018;28;20021;-82
2021/07/07 05:38:16;;;;;;;7.55;6.72;;;;;;;;;;5053822;28;20032;-80
2021/07/07 05:40:42;;;;;;;8.60;6.75;;;;;;;;;;5070078;28;20024;-80
2021/07/07 05:43:07;;;;;;;8.90;7.00;;;;;;;;;;5056830;28;20445;-79
2021/07/07 05:45:43;;;;;;;7.20;6.50;;;;;;;;;;5056711;28;20025;-79
2021/07/07 05:48:09;;;;;;;9.18;6.68;;;;;;;;;;5072541;28;20032;-81
2021/07/07 05:50:34;;;;;;;8.10;6.75;;;;;;;;;;5073261;28;20449;-78
2021/07/07 05:53:15;;;;;;;9.27;6.35;;;;;;;;;;5072247;28;20024;-80
2021/07/07 05:55:41;;;;;;;10.02;6.60;;;;;;;;;;5056972;28;20056;-78
2021/07/07 05:58:06;;;;;;;8.23;6.40;;;;;;;;;;5053622;28;20053;-80
2021/07/07 06:00:40;;;;;;;7.38;6.32;;;;;;;;;;5060289;28;20024;-80
2021/07/07 06:03:05;;;;;;;8.00;5.88;;;;;;;;;;5055971;28;20380;-80
2021/07/07 06:05:32;;;;;;;8.07;6.13;;;;;;;;;;5062145;28;20021;-74
2021/07/07 06:07:58;;;;;;;7.20;5.85;;;;;;;;;;5062788;28;20471;-74
2021/07/07 06:10:25;;;;;;;8.80;5.88;;;;;;;;;;5071126;28;20020;-73
2021/07/07 06:12:52;;;;;;;11.15;6.30;;;;;;;;;;5072391;28;20487;-74
2021/07/07 06:15:18;;;;;;;7.45;5.93;;;;;;;;;;5072296;28;20576;-74
2021/07/07 06:17:44;;;;;;;8.30;5.82;;;;;;;;;;5065315;28;20040;-74
2021/07/07 06:20:12;;;;;;;8.75;6.35;;;;;;;;;;5034198;28;20030;-74
2021/07/07 06:22:39;;;;;;;6.93;5.72;;;;;;;;;;5053085;28;20111;-74
2021/07/07 06:25:07;;;;;;;10.25;6.45;;;;;;;;;;5052162;28;20083;-73
2021/07/07 06:27:34;;;;;;;9.32;6.15;;;;;;;;;;5067839;28;20028;-74
2021/07/07 06:30:04;;;;;;;10.30;6.03;;;;;;;;;;5072778;28;20103;-75
2021/07/07 06:32:29;;;;;;;8.98;6.10;;;;;;;;;;5063787;28;20052;-74
2021/07/07 06:35:00;;;;;;;7.43;6.30;;;;;;;;;;5072046;28;20086;-74
2021/07/07 06:37:25;;;;;;;8.05;6.18;;;;;;;;;;5054978;28;20017;-74
2021/07/07 06:39:54;;;;;;;8.02;6.50;;;;;;;;;;5072783;28;20043;-74
2021/07/07 06:42:22;;;;;;;16.08;6.32;;;;;;;;;;5071029;28;20029;-73
2021/07/07 06:44:47;;;;;;;8.57;6.45;;;;;;;;;;5063271;28;20185;-74
2021/07/07 06:47:13;;;;;;;7.20;6.03;;;;;;;;;;5052627;28;20103;-81
2021/07/07 06:49:38;;;;;;;6.70;6.00;;;;;;;;;;5071959;28;20028;-82
2021/07/07 06:52:04;;;;;;;7.50;5.90;;;;;;;;;;5070055;28;20051;-80
2021/07/07 06:58:12;;;;;;;8.07;6.18;;;;;;;;;;5061674;28;20082;-69
2021/07/07 07:00:38;;;;;;;8.52;6.07;;;;;;;;;;5064647;28;20051;-73
2021/07/07 07:03:06;;;;;;;6.63;5.65;;;;;;;;;;5062018;28;20024;-72
2021/07/07 07:05:33;;;;;;;7.85;6.28;;;;;;;;;;5045719;28;20028;-76
2021/07/07 07:08:06;;;;;;;9.02;5.95;;;;;;;;;;5071186;28;20028;-74
2021/07/07 07:10:32;;;;;;;;;;;;;;;;;;5067893;28;20507;-72
2021/07/07 07:13:12;;;;;;;7.88;6.03;;;;;;;;;;5054587;28;20040;-73
2021/07/07 07:15:38;;;;;;;8.25;6.15;;;;;;;;;;5057498;28;20033;-75
2021/07/07 07:18:23;;;;;;;6.72;6.03;;;;;;;;;;5064977;28;20029;-73
2021/07/07 07:20:49;;;;;;;7.22;6.15;;;;;;;;;;5066242;28;20020;-72
2021/07/07 07:23:14;;;;;;;8.05;6.15;;;;;;;;;;5065336;28;20409;-77
2021/07/07 07:25:40;;;;;;;10.05;5.85;;;;;;;;;;5071661;28;20028;-77
2021/07/07 07:28:11;;;;;;;6.70;5.95;;;;;;;;;;5072856;28;20035;-77
2021/07/07 07:30:37;;;;;;;7.28;5.80;;;;;;;;;;5068305;28;20476;-77
2021/07/07 07:33:02;;;;;;;6.40;5.78;;;;;;;;;;5070625;28;20049;-77
2021/07/07 07:35:28;;;;;;;8.65;5.80;;;;;;;;;;5054720;28;20384;-76
2021/07/07 07:38:11;;;;;;;7.50;5.72;;;;;;;;;;5064216;28;20028;-76
2021/07/07 07:40:37;;;;;;;7.72;6.28;;;;;;;;;;5057334;28;20021;-76
2021/07/07 07:43:05;;;;;;;6.60;5.45;;;;;;;;;;5058995;28;20530;-77
2021/07/07 07:45:31;;;;;;;9.38;5.53;;;;;;;;;;5060351;28;20017;-76
2021/07/07 07:47:56;;;;;;;7.78;5.07;;;;;;;;;;5069362;28;20481;-82
2021/07/07 07:50:22;;;;;;;8.63;5.72;;;;;;;;;;5058706;28;20021;-78
2021/07/07 07:52:50;;;;;;;10.05;5.25;;;;;;;;;;5065853;28;20039;-76
2021/07/07 07:55:15;;;;;;;7.03;5.13;;;;;;;;;;5055491;28;20075;-76
2021/07/07 07:57:42;;;;;;;8.05;6.15;;;;;;;;;;5058020;28;20024;-76
2021/07/07 08:00:11;;;;;;;8.85;5.78;;;;;;;;;;5070329;28;20046;-82
2021/07/07 08:02:37;;;;;;;8.32;5.13;;;;;;;;;;5064499;28;20039;-80
2021/07/07 08:05:03;;;;;;;6.90;5.72;;;;;;;;;;5066363;28;20033;-78
2021/07/07 08:07:44;;;;;;;8.80;5.55;;;;;;;;;;5061258;28;20025;-83
2021/07/07 08:10:19;;;;;;;8.55;5.60;;;;;;;;;;5075840;28;20079;-81
2021/07/07 08:12:45;;;;;;;7.75;5.50;;;;;;;;;;5085215;28;20027;-74
2021/07/07 08:15:13;;;;;;;8.63;5.35;;;;;;;;;;5089359;28;20047;-79
2021/07/07 08:17:39;;;;;;;7.78;5.43;;;;;;;;;;5085059;28;20047;-78
2021/07/07 08:20:07;;;;;;;6.93;5.60;;;;;;;;;;5075605;28;20021;-78
2021/07/07 08:22:32;;;;;;;6.25;5.30;;;;;;;;;;5090581;28;20078;-77
2021/07/07 08:24:58;;;;;;;8.90;5.88;;;;;;;;;;5074986;28;20028;-78
2021/07/07 08:27:25;;;;;;;6.40;5.20;;;;;;;;;;5090109;28;20039;-78
2021/07/07 08:29:50;;;;;;;7.05;5.35;;;;;;;;;;5080084;28;20051;-78
2021/07/07 08:32:22;;;;;;;10.90;5.93;;;;;;;;;;5079649;28;20479;-78
2021/07/07 08:34:47;;;;;;;8.80;5.57;;;;;;;;;;5075586;28;20057;-78
2021/07/07 08:37:21;;;;;;;7.00;5.50;;;;;;;;;;5094683;28;20059;-76
2021/07/07 08:39:48;;;;;;;9.57;5.95;;;;;;;;;;5092369;28;20040;-74
2021/07/07 08:42:15;;;;;;;6.82;6.13;;;;;;;;;;5089074;28;20032;-74
2021/07/07 08:44:46;;;;;;;7.35;5.28;;;;;;;;;;5080631;28;20038;-73
2021/07/07 08:47:12;;;;;;;8.40;5.35;;;;;;;;;;5088859;28;20493;-74
2021/07/07 08:49:50;;;;;;;7.25;4.88;;;;;;;;;;5093319;28;20059;-73
2021/07/07 08:52:16;;;;;;;6.60;4.82;;;;;;;;;;5075905;28;20475;-75
2021/07/07 08:54:47;;;;;;;9.52;5.25;;;;;;;;;;5078818;28;20100;-71
2021/07/07 08:57:13;;;;;;;7.78;4.90;;;;;;;;;;5086570;28;20452;-74
2021/07/07 08:59:40;;;;;;;5.97;4.90;;;;;;;;;;5089368;28;20111;-73
2021/07/07 09:02:06;;;;;;;8.02;4.93;;;;;;;;;;5075165;28;20039;-74
2021/07/07 09:04:35;;;;;;;7.72;4.85;;;;;;;;;;5086680;28;20034;-73
2021/07/07 09:07:05;;;;;;;6.88;4.60;;;;;;;;;;5081752;28;20031;-74
2021/07/07 09:09:52;;;;;;;7.10;5.00;;;;;;;;;;5045556;28;20047;-73
2021/07/07 09:12:22;;;;;;;7.38;4.70;;;;;;;;;;5065638;28;20026;-72
2021/07/07 09:15:03;;;;;;;8.88;5.28;;;;;;;;;;5065601;28;20060;-72
2021/07/07 09:20:41;;;;;;;7.13;4.65;;;;;;;;;;5066983;28;20035;-72
2021/07/07 09:23:17;;;;;;;5.80;4.13;;;;;;;;;;5067828;28;20472;-73
2021/07/07 09:26:05;;;;;;;6.15;3.63;;;;;;;;;;5067960;28;20036;-73
2021/07/07 09:28:34;;;;;;;7.65;3.72;;;;;;;;;;5056421;28;20455;-73
2021/07/07 09:31:05;;;;;;;6.57;3.90;;;;;;;;;;5054752;28;20028;-75
2021/07/07 09:33:44;;;;;;;5.43;3.75;;;;;;;;;;5062374;28;20127;-72
2021/07/07 09:36:19;;;;;;;6.80;3.88;;;;;;;;;;5055748;28;20383;-73
2021/07/07 09:38:46;;;;;;;5.22;3.75;;;;;;;;;;5053059;28;20040;-72
2021/07/07 09:41:12;;;;;;;6.03;4.25;;;;;;;;;;5060742;28;20044;-71
2021/07/07 09:44:10;;;;;;;6.05;3.80;;;;;;;;;;5060035;28;20041;-72
2021/07/07 09:46:35;;;;;;;6.38;3.92;;;;;;;;;;5038961;28;20036;-72
2021/07/07 09:49:18;;;;;;;6.40;4.40;;;;;;;;;;5063669;28;20152;-73
2021/07/07 09:51:48;;;;;;;6.80;4.22;;;;;;;;;;5046560;28;20084;-74
2021/07/07 09:54:15;;;;;;;7.20;4.03;;;;;;;;;;5049187;28;20480;-74
2021/07/07 09:56:41;;;;;;;6.30;4.10;;;;;;;;;;5062325;28;20016;-74
2021/07/07 09:59:22;;;;;;;7.80;4.40;;;;;;;;;;5062929;28;20070;-71
2021/07/07 10:01:48;;;;;;;7.93;4.35;;;;;;;;;;5060980;28;20468;-74
2021/07/07 10:04:16;;;;;;;7.25;4.47;;;;;;;;;;5056017;28;20029;-74
2021/07/07 10:06:42;;;;;;;7.25;4.00;;;;;;;;;;5064542;28;20020;-74
2021/07/07 10:09:13;;;;;;;5.22;3.92;;;;;;;;;;5062081;28;20059;-74
2021/07/07 10:11:41;;;;;;;7.03;4.32;;;;;;;;;;5066807;28;20040;-73
2021/07/07 10:14:11;;;;;;;6.80;3.78;;;;;;;;;;5059677;28;20032;-71
2021/07/07 10:16:45;;;;;;;6.55;3.88;;;;;;;;;;5053089;28;20024;-72
2021/07/07 10:19:11;;;;;;;5.93;4.22;;;;;;;;;;5060963;28;20122;-72
2021/07/07 10:21:38;;;;;;;6.22;4.03;;;;;;;;;;5059371;28;20055;-71
2021/07/07 10:24:04;;;;;;;6.57;4.00;;;;;;;;;;5057575;28;20126;-72
2021/07/07 10:29:52;;;;;;;7.13;4.35;;;;;;;;;;5061011;28;20513;-73
2021/07/07 10:32:20;;;;;;;5.43;3.92;;;;;;;;;;5058291;28;20487;-73
2021/07/07 10:34:47;;;;;;;6.68;4.38;;;;;;;;;;5065965;28;20460;-72
2021/07/07 10:37:14;;;;;;;5.25;3.80;;;;;;;;;;5056532;28;20037;-72
2021/07/07 10:39:39;;;;;;;7.35;3.95;;;;;;;;;;5056604;28;20064;-72
2021/07/07 10:42:07;;;;;;;5.90;4.20;;;;;;;;;;5060564;28;20029;-71
2021/07/07 10:44:35;;;;;;;8.52;4.65;;;;;;;;;;5061596;28;20071;-78
2021/07/07 10:47:03;;;;;;;12.38;5.05;;;;;;;;;;5059216;28;20036;-78
2021/07/07 10:49:29;;;;;;;8.10;5.00;;;;;;;;;;5049528;28;20029;-77
2021/07/07 10:51:57;;;;;;;6.68;5.43;;;;;;;;;;5054644;28;20021;-77
2021/07/07 10:54:28;;;;;;;9.07;6.18;;;;;;;;;;5058258;28;20074;-78
2021/07/07 10:56:54;;;;;;;7.78;6.05;;;;;;;;;;5062751;28;20016;-76
2021/07/07 10:59:45;;;;;;;11.75;6.70;;;;;;;;;;5061319;28;20084;-78
2021/07/07 11:02:20;;;;;;;8.60;7.15;;;;;;;;;;5070170;28;20035;-78
2021/07/07 11:04:48;;;;;;;9.30;7.00;;;;;;;;;;5069795;28;20024;-78
2021/07/07 11:07:32;;;;;;;9.32;7.63;;;;;;;;;;5052023;28;20070;-78
2021/07/07 11:10:19;;;;;;;11.38;8.43;;;;;;;;;;5051350;28;20037;-78
2021/07/07 11:12:45;;;;;;;11.32;8.30;;;;;;;;;;5054002;28;20024;-78
2021/07/07 11:15:16;;;;;;;13.52;7.85;;;;;;;;;;5054561;28;20083;-77
2021/07/07 11:17:44;;;;;;;11.13;8.38;;;;;;;;;;5064273;28;20032;-77
2021/07/07 11:20:25;;;;;;;8.85;7.95;;;;;;;;;;5066743;28;20029;-77
2021/07/07 11:23:02;;;;;;;10.07;8.63;;;;;;;;;;5059708;28;20313;-79
2021/07/07 11:25:40;;;;;;;12.07;8.00;;;;;;;;;;5059757;28;20058;-79
2021/07/07 11:28:11;;;;;;;11.27;7.80;;;;;;;;;;5066081;28;20025;-78
2021/07/07 11:30:45;;;;;;;10.88;7.93;;;;;;;;;;5063683;28;20389;-79
2021/07/07 11:33:10;;;;;;;10.65;7.70;;;;;;;;;;5065962;28;20129;-79
2021/07/07 11:35:50;;;;;;;12.50;7.82;;;;;;;;;;5065967;28;20085;-78
2021/07/07 11:38:25;;;;;;;10.20;7.63;;;;;;;;;;5062030;28;20102;-78
2021/07/07 11:41:14;;;;;;;12.48;8.15;;;;;;;;;;5066842;28;20466;-78
2021/07/07 11:43:39;;;;;;;12.10;8.57;;;;;;;;;;5061870;28;20464;-78
2021/07/07 11:46:06;;;;;;;12.20;8.70;;;;;;;;;;5072739;28;20059;-77
2021/07/07 11:48:46;;;;;;;10.93;8.07;;;;;;;;;;5060255;28;20024;-77
2021/07/07 11:51:16;;;;;;;11.77;8.30;;;;;;;;;;5073163;28;20035;-78
2021/07/07 11:53:54;;;;;;;12.48;8.60;;;;;;;;;;5061151;28;20058;-77
2021/07/07 11:56:20;;;;;;;10.35;8.93;;;;;;;;;;5075972;28;20055;-76
2021/07/07 11:59:13;;;;;;;9.32;8.00;;;;;;;;;;5068777;28;20025;-78
2021/07/07 12:02:06;;;;;;;10.35;8.40;;;;;;;;;;5064157;28;20028;-77
2021/07/07 12:04:31;;;;;;;9.80;8.10;;;;;;;;;;5070434;28;20037;-79
2021/07/07 12:06:58;;;;;;;9.88;8.88;;;;;;;;;;5059358;28;20035;-78
2021/07/07 12:09:32;;;;;;;10.23;8.20;;;;;;;;;;5066965;28;20036;-76
2021/07/07 12:12:03;;;;;;;10.00;8.30;;;;;;;;;;5068811;28;20077;-78
2021/07/07 12:14:50;;;;;;;9.82;8.13;;;;;;;;;;5055061;28;20031;-78
2021/07/07 12:17:17;;;;;;;11.73;8.90;;;;;;;;;;5059382;28;20020;-78
2021/07/07 12:19:44;;;;;;;13.00;9.50;;;;;;;;;;5061553;28;20036;-76
2021/07/07 12:22:10;;;;;;;12.05;9.45;;;;;;;;;;5065786;28;20040;-77
2021/07/07 12:25:06;;;;;;;11.43;9.82;;;;;;;;;;5063039;28;20031;-77
2021/07/07 12:27:32;;;;;;;10.32;8.80;;;;;;;;;;5065179;28;20020;-78
2021/07/07 12:30:06;;;;;;;13.63;9.35;;;;;;;;;;5065190;28;20479;-78
2021/07/07 12:32:32;;;;;;;9.98;8.60;;;;;;;;;;5064345;28;20028;-76
2021/07/07 12:34:59;;;;;;;12.23;9.15;;;;;;;;;;5066635;28;20135;-77
2021/07/07 12:37:26;;;;;;;10.88;9.77;;;;;;;;;;5054167;28;20024;-75
2021/07/07 12:39:58;;;;;;;10.55;9.45;;;;;;;;;;5062442;28;20028;-77
2021/07/07 12:42:42;;;;;;;11.05;9.82;;;;;;;;;;5065333;28;20029;-75
2021/07/07 12:45:18;;;;;;;12.57;10.13;;;;;;;;;;5065792;28;20033;-74
2021/07/07 12:48:03;;;;;;;11.20;10.10;;;;;;;;;;5073950;28;20025;-75
2021/07/07 12:50:33;;;;;;;10.23;9.23;;;;;;;;;;5060575;28;20356;-75
2021/07/07 12:53:34;;;;;;;10.00;9.00;;;;;;;;;;5071046;28;20459;-76
2021/07/07 12:56:07;;;;;;;12.13;8.93;;;;;;;;;;5046197;28;20125;-76
2021/07/07 12:58:32;;;;;;;9.93;9.00;;;;;;;;;;5063524;28;20383;-75
2021/07/07 13:00:58;;;;;;;9.68;8.68;;;;;;;;;;5058562;28;20044;-78
2021/07/07 13:03:34;;;;;;;10.20;9.30;;;;;;;;;;5066522;28;20037;-78
2021/07/07 13:06:03;;;;;;;10.75;9.68;;;;;;;;;;5061781;28;20079;-76
2021/07/07 13:08:47;;;;;;;10.25;9.18;;;;;;;;;;5043946;28;20415;-74
2021/07/07 13:11:17;;;;;;;9.63;8.82;;;;;;;;;;5056124;28;20028;-76
2021/07/07 13:13:44;;;;;;;10.50;9.50;;;;;;;;;;5069515;28;20383;-74
2021/07/07 13:16:20;;;;;;;10.93;8.77;;;;;;;;;;5062966;28;20032;-74
2021/07/07 13:19:11;;;;;;;9.60;8.63;;;;;;;;;;5066837;28;20056;-76
2021/07/07 13:21:57;;;;;;;12.57;9.40;;;;;;;;;;5058949;28;20058;-77
2021/07/07 13:24:29;;;;;;;10.77;9.60;;;;;;;;;;5059588;28;20040;-76
2021/07/07 13:26:55;;;;;;;11.75;9.73;;;;;;;;;;5052332;28;20430;-76
2021/07/07 13:29:46;;;;;;;10.50;9.23;;;;;;;;;;5060046;28;20071;-75
2021/07/07 13:32:26;;;;;;;10.07;9.15;;;;;;;;;;5071306;28;20073;-76
2021/07/07 13:35:13;;;;;;;10.55;9.48;;;;;;;;;;5047365;28;20021;-75
2021/07/07 13:37:41;;;;;;;9.93;8.27;;;;;;;;;;5064694;28;20040;-75
2021/07/07 13:40:16;;;;;;;9.25;8.35;;;;;;;;;;5038336;28;20036;-74
2021/07/07 13:42:43;;;;;;;11.25;10.20;;;;;;;;;;5056604;28;20025;-72
2021/07/07 13:45:17;;;;;;;9.77;8.82;;;;;;;;;;5054943;28;20021;-72
2021/07/07 13:47:43;;;;;;;9.93;9.00;;;;;;;;;;5065781;28;20074;-72
2021/07/07 13:50:13;;;;;;;10.48;9.27;;;;;;;;;;5054683;28;20052;-76
2021/07/07 13:52:38;;;;;;;11.70;10.60;;;;;;;;;;5066542;28;20024;-72
2021/07/07 13:55:05;;;;;;;14.07;12.77;;;;;;;;;;5062806;28;20112;-74
2021/07/07 13:57:30;;;;;;;14.27;12.85;;;;;;;;;;5068825;28;20044;-74
2021/07/07 13:59:56;;;;;;;14.90;13.45;;;;;;;;;;5067287;28;20024;-73
2021/07/07 14:02:22;;;;;;;15.65;13.93;;;;;;;;;;5065298;28;20020;-73
2021/07/07 14:04:48;;;;;;;14.88;13.40;;;;;;;;;;5057795;28;20086;-74
2021/07/07 14:07:14;;;;;;;16.05;14.00;;;;;;;;;;5053666;28;20033;-73
2021/07/07 14:09:39;;;;;;;16.23;13.70;;;;;;;;;;5066405;28;20047;-74
2021/07/07 14:12:11;;;;;;;14.13;12.85;;;;;;;;;;5068890;28;20058;-73
2021/07/07 14:14:36;;;;;;;14.30;12.90;;;;;;;;;;5060349;28;20066;-73
2021/07/07 14:17:24;;;;;;;14.93;13.40;;;;;;;;;;5052977;28;20103;-73
2021/07/07 14:19:49;;;;;;;16.83;13.77;;;;;;;;;;5056219;28;20024;-73
2021/07/07 14:22:22;;;;;;;16.17;14.48;;;;;;;;;;5060198;28;20029;-75
2021/07/07 14:24:47;;;;;;;18.27;16.05;;;;;;;;;;5058275;28;20127;-74
2021/07/07 14:27:13;;;;;;;17.65;15.50;;;;;;;;;;5067177;28;20489;-73
2021/07/07 14:29:38;;;;;;;17.60;15.82;;;;;;;;;;5058217;28;20488;-74
2021/07/07 14:32:10;;;;;;;17.13;15.40;;;;;;;;;;5067305;28;20103;-73
2021/07/07 14:34:35;;;;;;;17.58;15.68;;;;;;;;;;5053226;28;20021;-73
2021/07/07 14:37:01;;;;;;;18.88;17.02;;;;;;;;;;5068644;28;20447;-73
2021/07/07 14:39:26;;;;;;;17.65;15.80;;;;;;;;;;5057244;28;20463;-73
2021/07/07 14:41:52;;;;;;;20.17;18.08;;;;;;;;;;5062599;28;20031;-73
2021/07/07 14:44:20;;;;;;;19.27;17.17;;;;;;;;;;5050877;28;20510;-73
2021/07/07 14:46:46;;;;;;;21.00;18.65;;;;;;;;;;5064526;28;20067;-74
2021/07/07 14:49:12;;;;;;;18.40;16.25;;;;;;;;;;5061871;28;20090;-75
2021/07/07 14:51:41;;;;;;;18.08;16.27;;;;;;;;;;5073994;28;20476;-77
2021/07/07 14:54:10;;;;;;;16.52;14.38;;;;;;;;;;5071218;28;20501;-73
2021/07/07 14:56:36;;;;;;;17.35;15.70;;;;;;;;;;5059083;28;20095;-74
2021/07/07 14:59:01;;;;;;;19.13;17.25;;;;;;;;;;5072117;28;20044;-74
2021/07/07 15:01:28;;;;;;;18.70;16.63;;;;;;;;;;5070414;28;20028;-72
2021/07/07 15:03:54;;;;;;;22.70;19.73;;;;;;;;;;5074044;28;20082;-74
2021/07/07 15:06:20;;;;;;;21.35;17.98;;;;;;;;;;5039291;28;20045;-73